Time;durP1;ratioP1;P1;durP2;ratioP2;P2;SDS_P1;SDS_P2;PMS_P1;PMS_P2;Temp;Humidity;BMP_temperature;BMP_pressure;BME280_temperature;BME280_humidity;BME280_pressure;Samples;Min_cycle;Max_cycle;Signal;HPM_P1;HPM_P2
2022/03/04 00:02:22;;;;;;;16.00;14.40;;;4.80;99.90;;;;;;4943207;29;20254;-62
2022/03/04 00:04:50;;;;;;;18.02;16.20;;;4.70;99.90;;;;;;4940174;29;20712;-62
2022/03/04 00:07:20;;;;;;;16.10;14.55;;;4.80;99.90;;;;;;4934552;29;20224;-63
2022/03/04 00:09:48;;;;;;;18.75;16.98;;;4.70;99.90;;;;;;4933771;29;20689;-63
2022/03/04 00:12:15;;;;;;;16.80;15.15;;;4.50;99.90;;;;;;4941051;29;20200;-62
2022/03/04 00:14:43;;;;;;;18.73;16.45;;;4.30;99.90;;;;;;4933891;29;20297;-63
2022/03/04 00:17:11;;;;;;;17.08;15.32;;;4.10;99.90;;;;;;4938192;29;20721;-62
2022/03/04 00:19:39;;;;;;;18.30;16.60;;;3.80;99.90;;;;;;4949010;29;20231;-62
2022/03/04 00:22:07;;;;;;;18.88;17.13;;;3.50;99.90;;;;;;4944243;29;20945;-62
2022/03/04 00:24:36;;;;;;;18.58;16.77;;;3.40;99.90;;;;;;4950870;28;20688;-62
2022/03/04 00:27:04;;;;;;;19.40;17.35;;;3.50;99.90;;;;;;4949911;29;20243;-63
2022/03/04 00:29:32;;;;;;;20.40;18.38;;;3.40;99.90;;;;;;4947397;29;20545;-63
2022/03/04 00:32:00;;;;;;;19.25;17.38;;;3.30;99.90;;;;;;4952755;29;20222;-63
2022/03/04 00:34:28;;;;;;;19.08;17.25;;;3.30;99.90;;;;;;4943778;29;20674;-62
2022/03/04 00:36:56;;;;;;;18.52;16.73;;;3.20;99.90;;;;;;4941963;29;20220;-62
2022/03/04 00:39:24;;;;;;;20.67;17.10;;;3.30;99.90;;;;;;4946224;29;20266;-62
2022/03/04 00:41:53;;;;;;;18.65;16.25;;;3.20;99.90;;;;;;4948854;29;20712;-62
2022/03/04 00:44:21;;;;;;;18.67;16.88;;;3.30;99.90;;;;;;4936678;29;20720;-62
2022/03/04 00:46:49;;;;;;;19.55;17.58;;;3.30;99.90;;;;;;4938686;29;20275;-62
2022/03/04 00:49:17;;;;;;;19.95;17.95;;;3.30;99.90;;;;;;4936874;29;20211;-62
2022/03/04 00:51:45;;;;;;;19.83;17.48;;;3.20;99.90;;;;;;4943154;29;20247;-61
2022/03/04 00:54:13;;;;;;;18.35;16.65;;;3.20;99.90;;;;;;4946494;29;20247;-61
2022/03/04 00:56:42;;;;;;;19.80;17.85;;;3.10;99.90;;;;;;4939700;29;20224;-62
2022/03/04 00:59:11;;;;;;;17.83;15.70;;;3.10;99.90;;;;;;4952815;28;20278;-63
2022/03/04 01:01:39;;;;;;;19.90;18.00;;;3.20;99.90;;;;;;4940955;29;20306;-63
2022/03/04 01:04:08;;;;;;;19.23;17.40;;;3.10;99.90;;;;;;4949122;29;20211;-62
2022/03/04 01:06:36;;;;;;;19.73;17.85;;;3.40;99.90;;;;;;4949610;29;20236;-62
2022/03/04 01:09:04;;;;;;;18.35;16.60;;;3.40;99.90;;;;;;4947892;29;20246;-62
2022/03/04 01:11:32;;;;;;;17.65;15.88;;;3.40;99.90;;;;;;4950110;29;20195;-62
2022/03/04 01:14:00;;;;;;;19.25;17.30;;;3.40;99.90;;;;;;4949536;29;20607;-62
2022/03/04 01:16:29;;;;;;;18.58;16.70;;;3.40;99.90;;;;;;4953134;29;20212;-62
2022/03/04 01:18:57;;;;;;;19.00;17.10;;;3.40;99.90;;;;;;4945375;29;20609;-62
2022/03/04 01:21:25;;;;;;;17.60;16.00;;;3.30;99.90;;;;;;4944691;29;20238;-62
2022/03/04 01:23:53;;;;;;;18.30;16.60;;;3.50;99.90;;;;;;4945438;29;20313;-62
2022/03/04 01:26:21;;;;;;;19.33;17.45;;;3.50;99.90;;;;;;4948492;29;20716;-62
2022/03/04 01:28:49;;;;;;;19.95;17.90;;;3.50;99.90;;;;;;4946743;29;20251;-62
2022/03/04 01:31:17;;;;;;;19.10;17.08;;;3.50;99.90;;;;;;4945691;29;20239;-62
2022/03/04 01:33:46;;;;;;;18.85;17.15;;;3.50;99.90;;;;;;4943407;29;20212;-62
2022/03/04 01:36:14;;;;;;;17.95;16.25;;;3.50;99.90;;;;;;4943771;29;20700;-61
2022/03/04 01:38:42;;;;;;;18.58;16.67;;;3.50;99.90;;;;;;4947074;29;20244;-62
2022/03/04 01:41:10;;;;;;;17.45;15.70;;;3.70;99.90;;;;;;4937811;29;20279;-62
2022/03/04 01:43:38;;;;;;;17.05;15.45;;;3.90;99.90;;;;;;4948454;29;20242;-62
2022/03/04 01:46:12;;;;;;;20.15;18.05;;;4.20;99.90;;;;;;4943590;29;20236;-62
2022/03/04 01:48:42;;;;;;;17.27;15.45;;;4.30;99.90;;;;;;4947209;29;20282;-63
2022/03/04 01:51:11;;;;;;;17.95;16.23;;;4.50;99.90;;;;;;4946509;29;20234;-62
2022/03/04 01:53:40;;;;;;;18.52;16.77;;;4.60;99.90;;;;;;4947199;29;20243;-62
2022/03/04 01:56:08;;;;;;;17.17;15.60;;;4.50;99.90;;;;;;4936528;29;20228;-63
2022/03/04 01:58:36;;;;;;;16.17;14.68;;;4.50;99.90;;;;;;4948222;29;20278;-62
2022/03/04 02:01:05;;;;;;;16.83;15.30;;;4.60;99.90;;;;;;4946439;29;20614;-62
2022/03/04 02:03:33;;;;;;;17.17;15.57;;;4.60;99.90;;;;;;4943810;29;20230;-62
2022/03/04 02:06:01;;;;;;;17.63;15.77;;;4.60;99.90;;;;;;4948194;29;20215;-62
2022/03/04 02:08:31;;;;;;;17.65;15.93;;;4.60;99.90;;;;;;4950435;29;20318;-62
2022/03/04 02:10:59;;;;;;;19.75;17.83;;;4.70;99.90;;;;;;4942045;29;20208;-62
2022/03/04 02:13:27;;;;;;;18.23;16.40;;;4.70;99.90;;;;;;4952165;29;20263;-62
2022/03/04 02:15:55;;;;;;;18.25;16.65;;;4.70;99.90;;;;;;4951370;29;20266;-62
2022/03/04 02:18:23;;;;;;;18.63;16.75;;;4.50;99.90;;;;;;4944299;29;20771;-61
2022/03/04 02:20:53;;;;;;;18.15;16.45;;;4.30;99.90;;;;;;4948184;29;20238;-62
2022/03/04 02:23:22;;;;;;;18.73;16.70;;;4.20;99.90;;;;;;4949650;29;20306;-62
2022/03/04 02:25:52;;;;;;;18.60;16.83;;;4.20;99.90;;;;;;4942039;29;20724;-63
2022/03/04 02:28:21;;;;;;;18.73;17.02;;;4.10;99.90;;;;;;4953382;29;20266;-62
2022/03/04 02:30:49;;;;;;;19.50;17.60;;;4.10;99.90;;;;;;4941983;29;20231;-62
2022/03/04 02:33:17;;;;;;;20.42;18.52;;;4.20;99.90;;;;;;4942694;29;20642;-63
2022/03/04 02:35:45;;;;;;;17.42;15.90;;;4.10;99.90;;;;;;4944346;29;20238;-62
2022/03/04 02:38:13;;;;;;;18.20;16.60;;;4.10;99.90;;;;;;4943942;29;20253;-62
2022/03/04 02:40:43;;;;;;;20.25;18.35;;;4.20;99.90;;;;;;4946943;28;20210;-62
2022/03/04 02:43:11;;;;;;;19.95;18.05;;;4.10;99.90;;;;;;4947877;29;20306;-62
2022/03/04 02:45:38;;;;;;;20.50;18.60;;;4.00;99.90;;;;;;4951391;29;20600;-62
2022/03/04 02:48:06;;;;;;;18.35;16.75;;;4.10;99.90;;;;;;4944585;29;20311;-62
2022/03/04 02:50:34;;;;;;;19.30;17.45;;;4.20;99.90;;;;;;4945495;29;20228;-62
2022/03/04 02:53:02;;;;;;;18.85;17.15;;;4.10;99.90;;;;;;4944105;29;20724;-62
2022/03/04 02:55:30;;;;;;;19.40;17.50;;;4.20;99.90;;;;;;4951855;29;20211;-62
2022/03/04 02:57:59;;;;;;;22.13;19.92;;;4.20;99.90;;;;;;4951686;29;20282;-62
2022/03/04 03:00:27;;;;;;;19.35;17.55;;;4.20;99.90;;;;;;4945583;29;20259;-62
2022/03/04 03:02:55;;;;;;;23.17;20.95;;;4.10;99.90;;;;;;4946890;29;20220;-62
2022/03/04 03:05:24;;;;;;;22.02;19.77;;;3.90;99.90;;;;;;4941456;29;20207;-62
2022/03/04 03:07:52;;;;;;;23.23;20.90;;;3.50;99.90;;;;;;4941604;29;20255;-62
2022/03/04 03:10:20;;;;;;;23.90;21.60;;;3.40;99.90;;;;;;4948942;29;20211;-62
2022/03/04 03:12:48;;;;;;;22.77;20.63;;;3.30;99.90;;;;;;4948866;29;20197;-62
2022/03/04 03:15:17;;;;;;;20.30;18.40;;;3.20;99.90;;;;;;4950662;29;20669;-62
2022/03/04 03:17:45;;;;;;;20.60;18.70;;;3.40;99.90;;;;;;4949365;29;20265;-62
2022/03/04 03:20:13;;;;;;;22.00;19.80;;;3.40;99.90;;;;;;4952001;29;20736;-62
2022/03/04 03:22:41;;;;;;;22.30;20.05;;;3.50;99.90;;;;;;4947381;29;20548;-62
2022/03/04 03:25:09;;;;;;;21.65;19.73;;;3.50;99.90;;;;;;4935709;29;20223;-62
2022/03/04 03:27:37;;;;;;;22.80;20.50;;;3.50;99.90;;;;;;4945780;29;20236;-62
2022/03/04 03:30:07;;;;;;;22.65;20.35;;;3.50;99.90;;;;;;4951364;29;20278;-62
2022/03/04 03:32:36;;;;;;;21.10;19.00;;;3.30;99.90;;;;;;4947680;29;20615;-62
2022/03/04 03:35:05;;;;;;;22.83;20.70;;;3.20;99.90;;;;;;4943235;29;20234;-62
2022/03/04 03:37:33;;;;;;;22.33;20.23;;;3.20;99.90;;;;;;4944078;29;20573;-62
2022/03/04 03:40:01;;;;;;;24.13;21.67;;;3.30;99.90;;;;;;4952469;29;20764;-63
2022/03/04 03:42:29;;;;;;;23.80;19.30;;;3.30;99.90;;;;;;4946128;28;20251;-62
2022/03/04 03:44:57;;;;;;;21.25;19.13;;;3.20;99.90;;;;;;4942297;29;20552;-62
2022/03/04 03:47:25;;;;;;;25.08;22.70;;;3.20;99.90;;;;;;4944814;29;20220;-62
2022/03/04 03:49:54;;;;;;;23.35;21.25;;;3.00;99.90;;;;;;4946249;29;20662;-61
2022/03/04 03:52:22;;;;;;;22.75;20.30;;;3.00;99.90;;;;;;4940843;29;20294;-62
2022/03/04 03:54:50;;;;;;;21.63;19.60;;;3.00;99.90;;;;;;4950362;29;20287;-62
2022/03/04 03:57:18;;;;;;;22.10;19.95;;;3.00;99.90;;;;;;4937769;29;20266;-62
2022/03/04 03:59:45;;;;;;;23.30;20.98;;;3.00;99.90;;;;;;4943052;29;20219;-62
2022/03/04 04:02:13;;;;;;;23.63;21.25;;;3.20;99.90;;;;;;4951708;29;20372;-62
2022/03/04 04:04:42;;;;;;;23.35;21.05;;;3.30;99.90;;;;;;4949795;29;20310;-62
2022/03/04 04:07:12;;;;;;;21.73;19.80;;;3.30;99.90;;;;;;4946370;29;20294;-61
2022/03/04 04:09:40;;;;;;;22.58;20.38;;;3.30;99.90;;;;;;4953021;29;20724;-62
2022/03/04 04:12:09;;;;;;;23.48;21.27;;;3.40;99.90;;;;;;4947966;29;20680;-62
2022/03/04 04:14:37;;;;;;;22.52;20.40;;;3.50;99.90;;;;;;4940653;28;20219;-62
2022/03/04 04:17:06;;;;;;;21.65;19.58;;;3.40;99.90;;;;;;4946760;29;20263;-62
2022/03/04 04:19:33;;;;;;;23.05;20.92;;;3.20;99.90;;;;;;4946542;28;20235;-62
2022/03/04 04:22:01;;;;;;;21.13;19.13;;;3.20;99.90;;;;;;4944450;29;20295;-61
2022/03/04 04:24:30;;;;;;;23.25;20.92;;;3.40;99.90;;;;;;4952211;29;20267;-61
2022/03/04 04:26:58;;;;;;;22.95;20.95;;;3.40;99.90;;;;;;4943332;29;20303;-62
2022/03/04 04:29:26;;;;;;;22.58;20.38;;;3.30;99.90;;;;;;4946188;29;20204;-62
2022/03/04 04:31:54;;;;;;;23.85;21.48;;;3.40;99.90;;;;;;4948820;29;20287;-61
2022/03/04 04:34:22;;;;;;;25.35;22.77;;;3.40;99.90;;;;;;4953379;29;20231;-62
2022/03/04 04:36:50;;;;;;;22.65;20.55;;;3.40;99.90;;;;;;4949042;29;20265;-61
2022/03/04 04:39:18;;;;;;;22.80;20.70;;;3.50;99.90;;;;;;4952780;29;20234;-61
2022/03/04 04:41:47;;;;;;;26.20;23.60;;;3.40;99.90;;;;;;4948484;29;20287;-62
2022/03/04 04:44:15;;;;;;;24.70;22.30;;;3.30;99.90;;;;;;4945539;28;20609;-62
2022/03/04 04:46:43;;;;;;;26.52;23.85;;;3.10;99.90;;;;;;4947664;29;20635;-62
2022/03/04 04:49:11;;;;;;;24.95;22.65;;;3.00;99.90;;;;;;4950319;29;20625;-62
2022/03/04 04:51:39;;;;;;;25.55;22.95;;;2.90;99.90;;;;;;4950626;29;20238;-62
2022/03/04 04:54:06;;;;;;;27.35;22.77;;;2.90;99.90;;;;;;4942585;29;20223;-62
2022/03/04 04:56:36;;;;;;;24.95;22.45;;;3.00;99.90;;;;;;4936635;29;20614;-62
2022/03/04 04:59:05;;;;;;;26.33;23.70;;;2.80;99.90;;;;;;4949258;29;20620;-62
2022/03/04 05:01:33;;;;;;;27.42;24.83;;;2.80;99.90;;;;;;4951634;29;20306;-62
2022/03/04 05:04:02;;;;;;;23.48;21.10;;;2.90;99.90;;;;;;4950663;29;20219;-62
2022/03/04 05:06:29;;;;;;;25.38;23.08;;;2.90;99.90;;;;;;4945400;29;20280;-62
2022/03/04 05:08:59;;;;;;;23.27;21.00;;;3.00;99.90;;;;;;4944311;28;20217;-63
2022/03/04 05:11:26;;;;;;;24.55;22.25;;;3.30;99.90;;;;;;4948781;29;20295;-63
2022/03/04 05:13:55;;;;;;;25.55;23.13;;;3.50;99.90;;;;;;4949219;29;20290;-62
2022/03/04 05:16:24;;;;;;;23.80;21.60;;;3.30;99.90;;;;;;4946078;29;20299;-63
2022/03/04 05:18:52;;;;;;;26.20;23.67;;;3.40;99.90;;;;;;4925681;29;20232;-62
2022/03/04 05:21:20;;;;;;;28.63;25.80;;;3.30;99.90;;;;;;4922970;29;20290;-63
2022/03/04 05:24:00;;;;;;;24.50;22.13;;;3.20;99.90;;;;;;4918396;29;20319;-63
2022/03/04 05:26:28;;;;;;;24.50;22.20;;;3.40;99.90;;;;;;4924926;29;20212;-63
2022/03/04 05:28:56;;;;;;;29.30;26.52;;;3.60;99.90;;;;;;4919797;29;20235;-63
2022/03/04 05:31:25;;;;;;;27.40;24.80;;;3.30;99.90;;;;;;4924262;29;20586;-63
2022/03/04 05:33:53;;;;;;;24.10;21.73;;;3.10;99.90;;;;;;4923951;29;20295;-62
2022/03/04 05:36:22;;;;;;;26.60;24.05;;;3.20;99.90;;;;;;4927426;29;20212;-62
2022/03/04 05:38:51;;;;;;;25.13;22.63;;;3.40;99.90;;;;;;4927967;29;20233;-62
2022/03/04 05:41:19;;;;;;;25.33;22.88;;;3.30;99.90;;;;;;4921845;29;20228;-62
2022/03/04 05:43:48;;;;;;;24.60;22.35;;;3.30;99.90;;;;;;4929139;29;20307;-63
2022/03/04 05:46:16;;;;;;;24.85;22.45;;;3.60;99.90;;;;;;4919764;29;20208;-62
2022/03/04 05:48:46;;;;;;;24.85;22.45;;;3.70;99.90;;;;;;4921336;29;20276;-62
2022/03/04 05:51:14;;;;;;;26.67;24.17;;;3.80;99.90;;;;;;4915763;29;20244;-62
2022/03/04 05:53:42;;;;;;;26.25;23.65;;;3.80;99.90;;;;;;4915713;29;20989;-63
2022/03/04 05:56:10;;;;;;;28.73;25.90;;;3.80;99.90;;;;;;4916034;29;20223;-62
2022/03/04 05:58:39;;;;;;;28.48;23.73;;;3.80;99.90;;;;;;4918451;29;20263;-62
2022/03/04 06:01:07;;;;;;;24.08;21.67;;;3.60;99.90;;;;;;4915634;29;20236;-62
2022/03/04 06:03:35;;;;;;;25.52;22.85;;;3.70;99.90;;;;;;4920201;29;20669;-62
2022/03/04 06:06:05;;;;;;;24.75;22.42;;;3.80;99.90;;;;;;4924656;29;20674;-63
2022/03/04 06:08:33;;;;;;;24.88;22.48;;;3.80;99.90;;;;;;4915520;29;20777;-64
2022/03/04 06:11:02;;;;;;;24.55;22.15;;;3.90;99.90;;;;;;4915519;29;20297;-62
2022/03/04 06:13:30;;;;;;;26.05;23.45;;;3.90;99.90;;;;;;4915269;29;20678;-62
2022/03/04 06:15:58;;;;;;;25.70;23.30;;;3.90;99.90;;;;;;4923908;29;20231;-61
2022/03/04 06:18:26;;;;;;;28.33;25.63;;;3.80;99.90;;;;;;4931024;29;20614;-63
2022/03/04 06:20:54;;;;;;;25.48;22.92;;;3.70;99.90;;;;;;4951698;28;20258;-63
2022/03/04 06:23:24;;;;;;;25.80;23.30;;;3.70;99.90;;;;;;4937001;29;20693;-62
2022/03/04 06:25:52;;;;;;;24.55;22.23;;;3.80;99.90;;;;;;4943939;29;20223;-62
2022/03/04 06:28:20;;;;;;;27.13;24.63;;;3.80;99.90;;;;;;4939168;29;20314;-62
2022/03/04 06:30:48;;;;;;;24.58;22.38;;;3.80;99.90;;;;;;4937660;29;20307;-61
2022/03/04 06:33:30;;;;;;;25.65;23.05;;;3.80;99.90;;;;;;4940465;29;20741;-62
2022/03/04 06:36:01;;;;;;;25.77;23.27;;;3.90;99.90;;;;;;4941573;28;20199;-62
2022/03/04 06:38:30;;;;;;;26.58;24.05;;;4.00;99.90;;;;;;4942995;28;20223;-62
2022/03/04 06:40:59;;;;;;;26.85;24.08;;;4.10;99.90;;;;;;4946979;28;20203;-62
2022/03/04 06:43:27;;;;;;;26.08;23.67;;;4.10;99.90;;;;;;4942346;28;20215;-62
2022/03/04 06:45:55;;;;;;;27.80;25.10;;;4.20;99.90;;;;;;4942025;28;20318;-63
2022/03/04 06:48:23;;;;;;;27.23;24.48;;;4.20;99.90;;;;;;4941381;28;20238;-63
2022/03/04 06:50:52;;;;;;;28.58;25.65;;;4.40;99.90;;;;;;4944824;28;20258;-63
2022/03/04 06:53:20;;;;;;;26.20;23.60;;;4.30;99.90;;;;;;4944744;28;20298;-63
2022/03/04 06:55:49;;;;;;;25.05;22.55;;;4.20;99.90;;;;;;4937850;28;20316;-63
2022/03/04 06:58:17;;;;;;;30.10;27.10;;;4.00;99.90;;;;;;4940481;28;20712;-61
2022/03/04 07:00:47;;;;;;;27.60;25.00;;;3.80;99.90;;;;;;4941507;28;20286;-60
2022/03/04 07:03:16;;;;;;;28.83;26.02;;;3.70;99.90;;;;;;4940888;28;20211;-60
2022/03/04 07:05:45;;;;;;;25.15;22.80;;;3.40;99.90;;;;;;4937759;28;20751;-61
2022/03/04 07:08:14;;;;;;;25.90;23.50;;;3.30;99.90;;;;;;4940676;28;20223;-61
2022/03/04 07:10:43;;;;;;;29.13;26.17;;;3.30;99.90;;;;;;4938221;28;20555;-61
2022/03/04 07:13:13;;;;;;;29.23;26.30;;;3.20;99.90;;;;;;4936306;28;20695;-61
2022/03/04 07:15:41;;;;;;;26.13;23.27;;;3.30;99.90;;;;;;4944441;28;20226;-61
2022/03/04 07:18:09;;;;;;;26.63;24.00;;;3.40;99.90;;;;;;4936760;28;20736;-61
2022/03/04 07:20:37;;;;;;;30.30;26.40;;;3.10;99.90;;;;;;4939715;28;20290;-61
2022/03/04 07:23:05;;;;;;;30.58;27.55;;;3.10;99.90;;;;;;4947168;28;20231;-61
2022/03/04 07:25:34;;;;;;;29.63;26.70;;;2.90;99.90;;;;;;4935252;28;20222;-61
2022/03/04 07:28:02;;;;;;;28.20;25.65;;;2.80;99.90;;;;;;4933961;28;20318;-62
2022/03/04 07:30:31;;;;;;;29.30;26.33;;;2.90;99.90;;;;;;4942648;28;20220;-62
2022/03/04 07:32:59;;;;;;;27.20;24.42;;;2.80;99.90;;;;;;4941843;28;20286;-61
2022/03/04 07:35:28;;;;;;;29.08;26.17;;;2.90;99.90;;;;;;4939295;28;20207;-61
2022/03/04 07:37:56;;;;;;;27.33;24.75;;;3.00;99.90;;;;;;4942057;28;20231;-61
2022/03/04 07:40:24;;;;;;;30.80;25.73;;;3.20;99.90;;;;;;4943964;28;20207;-62
2022/03/04 07:42:53;;;;;;;28.52;25.60;;;3.30;99.90;;;;;;4943207;28;20215;-61
2022/03/04 07:45:21;;;;;;;29.83;26.80;;;3.30;99.90;;;;;;4950341;28;20235;-61
2022/03/04 07:47:50;;;;;;;29.60;26.80;;;3.30;99.90;;;;;;4933998;28;20240;-61
2022/03/04 07:50:18;;;;;;;27.48;24.75;;;3.30;99.90;;;;;;4941571;28;20236;-61
2022/03/04 07:52:49;;;;;;;28.58;25.58;;;3.40;99.90;;;;;;4947314;28;20290;-61
2022/03/04 07:55:18;;;;;;;30.83;27.73;;;3.50;99.90;;;;;;4939444;28;20242;-61
2022/03/04 07:57:46;;;;;;;30.30;26.13;;;3.60;99.90;;;;;;4951437;28;20735;-62
2022/03/04 08:00:17;;;;;;;29.83;26.80;;;3.60;99.90;;;;;;4944957;28;20242;-62
2022/03/04 08:02:45;;;;;;;29.30;26.27;;;3.60;99.90;;;;;;4951315;28;20299;-61
2022/03/04 08:05:15;;;;;;;30.00;27.00;;;3.70;99.90;;;;;;4939612;28;20603;-61
2022/03/04 08:07:42;;;;;;;28.80;25.77;;;3.70;99.90;;;;;;4946777;28;20224;-62
2022/03/04 08:10:12;;;;;;;29.77;26.85;;;3.80;99.90;;;;;;4939558;28;20243;-62
2022/03/04 08:12:40;;;;;;;29.65;26.73;;;3.90;99.90;;;;;;4945066;28;20218;-62
2022/03/04 08:15:10;;;;;;;28.77;26.08;;;4.00;99.90;;;;;;4947618;28;20203;-62
2022/03/04 08:17:39;;;;;;;29.27;26.25;;;4.00;99.90;;;;;;4941497;28;20266;-61
2022/03/04 08:20:08;;;;;;;30.33;27.38;;;4.10;99.90;;;;;;4948128;28;20207;-62
2022/03/04 08:22:38;;;;;;;32.65;29.25;;;4.30;99.90;;;;;;4942639;28;20216;-62
2022/03/04 08:25:07;;;;;;;29.55;26.45;;;4.50;99.90;;;;;;4941136;28;20307;-62
2022/03/04 08:27:38;;;;;;;31.23;28.00;;;4.60;99.90;;;;;;4943794;28;20269;-62
2022/03/04 08:30:08;;;;;;;31.42;28.00;;;4.90;99.90;;;;;;4946525;28;20203;-61
2022/03/04 08:32:36;;;;;;;29.55;26.67;;;4.90;99.90;;;;;;4941633;28;20254;-62
2022/03/04 08:35:04;;;;;;;28.58;25.63;;;5.00;99.90;;;;;;4949515;28;20367;-63
2022/03/04 08:37:33;;;;;;;30.48;27.35;;;5.10;99.90;;;;;;4944268;28;20249;-62
2022/03/04 08:40:02;;;;;;;30.65;27.48;;;5.20;99.90;;;;;;4946327;28;20207;-63
2022/03/04 08:42:30;;;;;;;30.48;27.48;;;5.30;99.90;;;;;;4946413;28;20207;-62
2022/03/04 08:44:58;;;;;;;31.95;28.55;;;5.30;99.90;;;;;;4937246;28;20235;-63
2022/03/04 08:47:26;;;;;;;31.17;27.83;;;5.40;99.90;;;;;;4940046;28;20231;-62
2022/03/04 08:49:54;;;;;;;32.55;29.35;;;5.30;99.90;;;;;;4947495;28;20306;-62
2022/03/04 08:52:22;;;;;;;30.88;27.63;;;5.50;99.90;;;;;;4945952;28;20561;-62
2022/03/04 08:54:50;;;;;;;30.95;27.75;;;5.50;99.90;;;;;;4943863;28;20690;-62
2022/03/04 08:57:20;;;;;;;29.73;26.67;;;5.60;99.90;;;;;;4936150;28;20990;-63
2022/03/04 08:59:47;;;;;;;30.73;27.60;;;5.70;99.90;;;;;;4941901;28;20208;-62
2022/03/04 09:02:15;;;;;;;29.95;26.83;;;5.80;99.90;;;;;;4940392;28;20307;-62
2022/03/04 09:04:44;;;;;;;29.92;26.88;;;6.00;99.90;;;;;;4940447;28;20258;-63
2022/03/04 09:07:11;;;;;;;30.85;27.42;;;6.20;99.90;;;;;;4942589;28;20756;-62
2022/03/04 09:09:39;;;;;;;30.05;26.95;;;6.10;99.90;;;;;;4939605;28;20323;-62
2022/03/04 09:12:08;;;;;;;32.10;28.70;;;6.20;99.90;;;;;;4938878;28;20311;-65
2022/03/04 09:14:38;;;;;;;32.22;28.42;;;6.20;99.90;;;;;;4943100;28;20733;-62
2022/03/04 09:17:06;;;;;;;33.60;27.63;;;6.20;99.90;;;;;;4936837;28;20690;-63
2022/03/04 09:19:34;;;;;;;32.85;29.05;;;6.40;99.90;;;;;;4945618;28;20652;-62
2022/03/04 09:22:22;;;;;;;31.55;28.17;;;6.70;99.90;;;;;;4940092;28;20319;-63
2022/03/04 09:24:50;;;;;;;32.47;27.30;;;6.70;99.90;;;;;;4944293;28;20302;-62
2022/03/04 09:27:18;;;;;;;29.48;26.27;;;6.80;99.90;;;;;;4940919;28;20227;-62
2022/03/04 09:29:47;;;;;;;30.33;27.02;;;6.80;99.90;;;;;;4939151;28;20300;-63
2022/03/04 09:32:15;;;;;;;30.63;26.83;;;6.90;99.90;;;;;;4941862;28;20298;-64
2022/03/04 09:34:43;;;;;;;33.97;27.90;;;7.20;99.90;;;;;;4945535;28;20937;-63
2022/03/04 09:37:11;;;;;;;29.67;25.17;;;7.30;99.90;;;;;;4940655;28;20251;-62
2022/03/04 09:39:39;;;;;;;29.70;26.50;;;7.30;99.90;;;;;;4938021;28;20292;-62
2022/03/04 09:42:08;;;;;;;29.05;25.95;;;7.30;99.90;;;;;;4941896;28;20720;-62
2022/03/04 09:44:36;;;;;;;28.83;25.77;;;7.50;99.90;;;;;;4941332;28;20807;-62
2022/03/04 09:47:06;;;;;;;31.27;26.50;;;7.90;99.90;;;;;;4944970;28;20737;-62
2022/03/04 09:49:36;;;;;;;29.20;26.08;;;8.00;99.90;;;;;;4940358;28;20239;-62
2022/03/04 09:52:06;;;;;;;29.90;26.73;;;8.20;99.90;;;;;;4937620;28;20254;-63
2022/03/04 09:54:34;;;;;;;30.58;25.77;;;8.50;99.40;;;;;;4942137;28;20294;-63
2022/03/04 09:57:02;;;;;;;29.05;24.80;;;8.50;98.80;;;;;;4941923;28;20305;-63
2022/03/04 09:59:30;;;;;;;29.15;24.70;;;8.50;98.80;;;;;;4945899;28;20665;-63
2022/03/04 10:01:59;;;;;;;30.65;25.85;;;8.40;99.20;;;;;;4943620;28;20246;-62
2022/03/04 10:04:29;;;;;;;30.83;26.52;;;8.50;98.80;;;;;;4945929;28;20207;-63
2022/03/04 10:06:57;;;;;;;33.58;27.75;;;8.40;98.60;;;;;;4946636;28;20231;-63
2022/03/04 10:09:40;;;;;;;34.42;26.85;;;8.30;98.90;;;;;;4939719;28;20724;-62
2022/03/04 10:12:09;;;;;;;31.63;26.05;;;8.50;99.30;;;;;;4941158;28;20733;-61
2022/03/04 10:14:57;;;;;;;32.33;26.25;;;8.90;99.10;;;;;;4942210;28;20283;-62
2022/03/04 10:17:31;;;;;;;26.60;23.80;;;9.30;98.60;;;;;;4946908;28;20333;-62
2022/03/04 10:20:02;;;;;;;30.88;25.90;;;9.30;97.30;;;;;;4943989;28;20298;-62
2022/03/04 10:22:37;;;;;;;30.58;26.17;;;9.30;97.00;;;;;;4946593;28;20206;-63
2022/03/04 10:25:16;;;;;;;28.05;25.02;;;9.40;97.80;;;;;;4936575;28;20751;-62
2022/03/04 10:27:45;;;;;;;33.20;26.60;;;9.70;97.00;;;;;;4942603;28;20753;-62
2022/03/04 10:30:14;;;;;;;30.40;24.88;;;9.60;96.70;;;;;;4945900;28;20254;-62
2022/03/04 10:32:43;;;;;;;28.33;25.27;;;9.60;97.60;;;;;;4945453;28;20258;-62
2022/03/04 10:35:14;;;;;;;29.17;25.15;;;9.60;96.60;;;;;;4941312;28;20219;-64
2022/03/04 10:37:46;;;;;;;31.15;27.40;;;9.50;96.60;;;;;;4939114;28;20233;-62
2022/03/04 10:40:16;;;;;;;29.42;26.10;;;9.40;97.10;;;;;;4939972;28;20246;-62
2022/03/04 10:42:47;;;;;;;27.83;24.83;;;9.70;97.00;;;;;;4943116;28;20782;-63
2022/03/04 10:45:19;;;;;;;30.20;25.20;;;9.80;96.70;;;;;;4935872;29;20207;-62
2022/03/04 10:47:50;;;;;;;32.63;26.65;;;10.10;96.20;;;;;;4937784;28;20784;-62
2022/03/04 10:50:26;;;;;;;32.60;26.52;;;10.30;95.20;;;;;;4934781;28;20689;-62
2022/03/04 10:52:58;;;;;;;30.08;26.25;;;10.30;95.10;;;;;;4942091;28;20230;-63
2022/03/04 10:55:31;;;;;;;28.65;25.55;;;10.30;95.50;;;;;;4939235;28;20211;-63
2022/03/04 10:58:00;;;;;;;29.05;25.83;;;10.60;94.70;;;;;;4939115;28;20290;-63
2022/03/04 11:00:30;;;;;;;32.28;28.08;;;10.70;95.00;;;;;;4940163;28;20215;-62
2022/03/04 11:02:59;;;;;;;34.33;27.67;;;10.80;94.20;;;;;;4940121;28;20211;-63
2022/03/04 11:05:29;;;;;;;29.27;25.90;;;10.90;94.00;;;;;;4946001;28;20221;-63
2022/03/04 11:07:57;;;;;;;30.55;27.35;;;10.60;93.80;;;;;;4933413;28;20231;-62
2022/03/04 11:10:26;;;;;;;31.75;27.42;;;10.90;93.90;;;;;;4940603;28;20208;-62
2022/03/04 11:12:55;;;;;;;30.45;26.00;;;11.10;94.00;;;;;;4939802;28;20263;-63
2022/03/04 11:15:24;;;;;;;30.58;27.35;;;11.10;93.60;;;;;;4940667;29;20262;-62
2022/03/04 11:17:54;;;;;;;29.40;26.17;;;11.20;93.70;;;;;;4944017;28;20734;-64
2022/03/04 11:20:21;;;;;;;33.17;29.00;;;11.20;93.40;;;;;;4942701;28;20242;-62
2022/03/04 11:22:51;;;;;;;32.92;28.65;;;11.30;93.30;;;;;;4944104;28;20207;-64
2022/03/04 11:25:19;;;;;;;33.67;29.90;;;11.10;93.90;;;;;;4942702;28;20210;-63
2022/03/04 11:27:48;;;;;;;30.65;27.40;;;11.10;93.40;;;;;;4939182;28;20940;-62
2022/03/04 11:30:31;;;;;;;29.08;25.92;;;11.00;93.30;;;;;;4941897;28;20241;-62
2022/03/04 11:33:07;;;;;;;31.20;27.25;;;11.10;93.30;;;;;;4942612;28;20211;-63
2022/03/04 11:36:00;;;;;;;32.97;27.98;;;10.90;93.90;;;;;;4939853;28;20212;-63
2022/03/04 11:39:08;;;;;;;30.27;27.08;;;11.40;93.20;;;;;;4940608;28;20249;-63
2022/03/04 11:41:40;;;;;;;31.27;27.70;;;11.40;92.90;;;;;;4934042;28;20275;-63
2022/03/04 11:44:17;;;;;;;30.38;27.17;;;11.40;92.50;;;;;;4942408;28;20239;-63
2022/03/04 11:46:49;;;;;;;31.20;27.90;;;11.10;92.60;;;;;;4943885;28;20210;-63
2022/03/04 11:49:31;;;;;;;31.02;27.63;;;11.30;93.30;;;;;;4940239;28;20714;-63
2022/03/04 11:52:20;;;;;;;36.15;27.58;;;11.60;92.60;;;;;;4938898;28;21072;-64
2022/03/04 11:55:12;;;;;;;30.73;26.38;;;11.70;91.90;;;;;;4943489;28;20196;-63
2022/03/04 11:57:42;;;;;;;31.92;28.48;;;12.20;92.00;;;;;;4943344;28;20227;-62
2022/03/04 12:00:39;;;;;;;33.75;28.90;;;12.10;91.80;;;;;;4942130;28;20290;-63
2022/03/04 12:03:18;;;;;;;34.10;29.27;;;12.10;91.90;;;;;;4937175;28;20211;-64
2022/03/04 12:06:00;;;;;;;31.38;27.92;;;12.10;91.40;;;;;;4940460;28;20204;-63
2022/03/04 12:08:39;;;;;;;35.92;30.17;;;12.40;91.10;;;;;;4941248;28;20224;-63
2022/03/04 12:11:07;;;;;;;33.78;28.92;;;12.10;90.70;;;;;;4935164;28;20199;-62
2022/03/04 12:13:42;;;;;;;30.40;27.17;;;12.00;91.30;;;;;;4945479;28;20223;-63
2022/03/04 12:16:11;;;;;;;31.30;27.15;;;12.30;90.90;;;;;;4935900;28;20204;-63
2022/03/04 12:18:42;;;;;;;31.65;28.30;;;12.60;89.60;;;;;;4941982;28;20322;-63
2022/03/04 12:21:24;;;;;;;37.47;29.50;;;12.50;89.80;;;;;;4940759;28;20258;-63
2022/03/04 12:23:58;;;;;;;31.70;27.48;;;12.30;89.10;;;;;;4941916;28;20359;-63
2022/03/04 12:26:42;;;;;;;33.33;27.58;;;12.60;90.20;;;;;;4944758;28;20241;-64
2022/03/04 12:29:14;;;;;;;29.88;26.33;;;12.90;88.60;;;;;;4940446;28;20216;-64
2022/03/04 12:31:44;;;;;;;30.05;26.20;;;13.10;87.50;;;;;;4951373;28;20301;-63
2022/03/04 12:34:19;;;;;;;28.65;25.73;;;13.10;86.20;;;;;;4946755;28;20552;-63
2022/03/04 12:36:48;;;;;;;29.75;25.83;;;13.10;85.40;;;;;;4938019;28;20314;-63
2022/03/04 12:39:20;;;;;;;32.05;28.15;;;12.80;85.00;;;;;;4948230;28;21014;-62
2022/03/04 12:41:49;;;;;;;31.67;28.42;;;13.00;84.30;;;;;;4938905;28;20290;-63
2022/03/04 12:44:18;;;;;;;32.03;28.52;;;13.10;84.80;;;;;;4936557;28;20282;-63
2022/03/04 12:46:47;;;;;;;35.17;28.05;;;12.80;84.70;;;;;;4937881;28;20612;-62
2022/03/04 12:49:16;;;;;;;29.55;26.55;;;12.80;83.30;;;;;;4941420;28;20211;-64